createdAt,value
2018-09-04T00:01:20.295Z,65.37
2018-09-04T00:03:48.635Z,69.50
2018-09-04T00:06:17.044Z,67.80
2018-09-04T00:08:45.356Z,70.23
2018-09-04T00:11:13.669Z,60.73
2018-09-04T00:13:41.958Z,72.77
2018-09-04T00:16:11.262Z,69.33
2018-09-04T00:18:40.707Z,76.53
2018-09-04T00:21:09.026Z,77.37
2018-09-04T00:23:37.367Z,71.70
2018-09-04T00:26:05.917Z,84.87
2018-09-04T00:28:34.293Z,83.57
2018-09-04T00:31:02.648Z,84.30
2018-09-04T00:33:30.951Z,81.57
2018-09-04T00:35:59.334Z,80.00
2018-09-04T00:38:27.651Z,83.33
2018-09-04T00:40:55.947Z,81.37
2018-09-04T00:43:24.691Z,83.43
2018-09-04T00:45:53.035Z,90.30
2018-09-04T00:48:21.368Z,84.53
2018-09-04T00:50:50.803Z,92.70
2018-09-04T00:53:19.134Z,82.63
2018-09-04T00:55:47.478Z,82.77
2018-09-04T00:58:15.971Z,86.70
2018-09-04T01:00:44.285Z,90.37
2018-09-04T01:03:12.615Z,94.17
2018-09-04T01:05:40.920Z,98.87
2018-09-04T01:08:09.222Z,105.40
2018-09-04T01:10:37.525Z,100.43
2018-09-04T01:13:06.351Z,104.03
2018-09-04T01:15:34.678Z,102.33
2018-09-04T01:18:02.992Z,105.83
2018-09-04T01:20:31.303Z,113.83
2018-09-04T01:22:59.715Z,116.37
2018-09-04T01:25:28.106Z,120.73
2018-09-04T01:27:56.443Z,112.67
2018-09-04T01:30:25.211Z,117.13
2018-09-04T01:32:53.520Z,120.83
2018-09-04T01:35:21.999Z,122.37
2018-09-04T01:37:50.344Z,130.37
2018-09-04T01:40:18.650Z,133.83
2018-09-04T01:42:46.956Z,125.63
2018-09-04T01:45:15.247Z,127.80
2018-09-04T01:47:43.568Z,136.50
2018-09-04T01:50:11.862Z,137.77
2018-09-04T01:52:40.188Z,136.40
2018-09-04T01:55:08.491Z,139.77
2018-09-04T01:57:36.794Z,145.00
2018-09-04T02:00:05.642Z,141.23
2018-09-04T02:02:33.941Z,154.63
2018-09-04T02:05:02.261Z,145.70
2018-09-04T02:07:30.571Z,145.93
2018-09-04T02:09:58.880Z,158.17
2018-09-04T02:12:27.196Z,149.97
2018-09-04T02:14:55.494Z,150.90
2018-09-04T02:17:23.811Z,152.13
2018-09-04T02:19:52.114Z,159.03
2018-09-04T02:22:20.407Z,159.73
2018-09-04T02:24:48.698Z,156.80
2018-09-04T02:27:17.000Z,154.27
2018-09-04T02:29:45.315Z,151.53
2018-09-04T02:32:13.631Z,159.33
2018-09-04T02:34:41.929Z,162.63
2018-09-04T02:37:10.234Z,171.00
2018-09-04T02:39:38.548Z,166.67
2018-09-04T02:42:06.852Z,174.63
2018-09-04T02:44:35.154Z,161.63
2018-09-04T02:47:03.447Z,162.77
2018-09-04T02:49:31.844Z,175.87
2018-09-04T02:52:00.143Z,177.50
2018-09-04T02:54:28.495Z,177.87
2018-09-04T02:56:56.792Z,172.83
2018-09-04T02:59:25.104Z,193.90
2018-09-04T03:01:53.440Z,180.67
2018-09-04T03:04:21.743Z,178.73
2018-09-04T03:06:50.080Z,170.90
2018-09-04T03:09:18.391Z,194.20
2018-09-04T03:11:46.694Z,185.37
2018-09-04T03:14:15.016Z,198.20
2018-09-04T03:16:43.319Z,190.67
2018-09-04T03:19:11.641Z,191.80
2018-09-04T03:21:39.956Z,186.63
2018-09-04T03:24:08.276Z,189.43
2018-09-04T03:26:36.703Z,191.23
2018-09-04T03:29:05.007Z,200.97
2018-09-04T03:31:33.424Z,185.60
2018-09-04T03:34:01.745Z,189.93
2018-09-04T03:36:30.212Z,183.97
2018-09-04T03:38:58.706Z,180.00
2018-09-04T03:41:27.045Z,183.60
2018-09-04T03:43:55.339Z,184.97
2018-09-04T03:46:23.651Z,174.57
2018-09-04T03:48:51.958Z,209.77
2018-09-04T03:51:20.259Z,195.57
2018-09-04T03:53:48.566Z,194.83
2018-09-04T03:56:16.869Z,179.23
2018-09-04T03:58:45.341Z,197.23
2018-09-04T04:01:13.651Z,189.13
2018-09-04T04:03:41.947Z,192.20
2018-09-04T04:06:10.259Z,187.63
2018-09-04T04:08:38.635Z,197.03
2018-09-04T04:11:06.939Z,176.50
2018-09-04T04:13:35.235Z,185.77
2018-09-04T04:16:03.527Z,196.03
2018-09-04T04:18:31.860Z,196.33
2018-09-04T04:21:01.236Z,177.57
2018-09-04T04:23:30.544Z,197.80
2018-09-04T04:26:00.372Z,169.97
2018-09-04T04:28:28.664Z,178.33
2018-09-04T04:30:56.972Z,182.83
2018-09-04T04:33:25.259Z,191.23
2018-09-04T04:35:53.564Z,163.00
2018-09-04T04:38:21.875Z,170.93
2018-09-04T04:40:50.220Z,163.87
2018-09-04T04:43:18.534Z,155.60
2018-09-04T04:45:46.852Z,150.33
2018-09-04T04:48:15.197Z,154.27
2018-09-04T04:50:43.517Z,149.37
2018-09-04T04:53:12.013Z,157.07
2018-09-04T04:55:40.341Z,143.37
2018-09-04T04:58:08.697Z,152.80
2018-09-04T05:00:37.024Z,149.03
2018-09-04T05:03:05.363Z,155.87
2018-09-04T05:05:33.668Z,147.00
2018-09-04T05:08:01.981Z,148.00
2018-09-04T05:10:30.319Z,150.63
2018-09-04T05:12:58.643Z,142.27
2018-09-04T05:15:26.935Z,161.60
2018-09-04T05:17:55.229Z,143.10
2018-09-04T05:20:25.858Z,136.40
2018-09-04T05:22:54.181Z,144.10
2018-09-04T05:25:22.523Z,139.60
2018-09-04T05:27:50.831Z,123.30
2018-09-04T05:30:19.132Z,132.00
2018-09-04T05:33:23.101Z,131.63
2018-09-04T05:35:54.186Z,141.30
2018-09-04T05:38:22.522Z,129.53
2018-09-04T05:40:50.811Z,137.10
2018-09-04T05:43:28.650Z,134.00
2018-09-04T05:45:59.208Z,121.60
2018-09-04T05:48:27.556Z,130.20
2018-09-04T05:50:56.120Z,124.03
2018-09-04T05:53:25.595Z,121.07
2018-09-04T05:55:53.932Z,118.37
2018-09-04T05:58:22.238Z,125.63
2018-09-04T06:00:54.587Z,115.40
2018-09-04T06:03:22.920Z,124.70
2018-09-04T06:05:51.257Z,127.10
2018-09-04T06:08:19.578Z,126.13
2018-09-04T06:10:47.918Z,123.73
2018-09-04T06:13:16.272Z,125.70
2018-09-04T06:15:44.573Z,112.27
2018-09-04T06:18:12.896Z,134.97
2018-09-04T06:20:41.219Z,120.13
2018-09-04T06:23:09.538Z,117.70
2018-09-04T06:25:37.839Z,119.63
2018-09-04T06:28:06.177Z,124.03
2018-09-04T06:30:34.493Z,116.03
2018-09-04T06:33:02.808Z,119.70
2018-09-04T06:35:31.195Z,120.80
2018-09-04T06:37:59.447Z,123.53
2018-09-04T06:40:27.801Z,129.10
2018-09-04T06:42:56.107Z,124.23
2018-09-04T06:45:24.526Z,134.10
2018-09-04T06:47:52.832Z,148.23
2018-09-04T06:50:21.136Z,142.87
2018-09-04T06:52:49.447Z,157.50
2018-09-04T06:55:17.753Z,148.33
2018-09-04T06:57:46.065Z,153.63
2018-09-04T07:00:15.042Z,153.17
2018-09-04T07:02:43.372Z,143.13
2018-09-04T07:05:12.323Z,156.20
2018-09-04T07:07:41.083Z,173.07
2018-09-04T07:10:09.768Z,158.87
2018-09-04T07:12:38.351Z,161.20
2018-09-04T07:15:07.174Z,162.00
2018-09-04T07:17:35.511Z,170.50
2018-09-04T07:20:03.802Z,177.07
2018-09-04T07:22:32.144Z,180.97
2018-09-04T07:25:00.706Z,164.27
2018-09-04T07:27:29.193Z,173.00
2018-09-04T07:29:57.539Z,147.43
2018-09-04T07:32:25.887Z,143.00
2018-09-04T07:34:54.191Z,155.63
2018-09-04T07:37:22.503Z,142.77
2018-09-04T07:39:50.817Z,138.73
2018-09-04T07:42:19.139Z,126.67
2018-09-04T07:44:47.445Z,126.90
2018-09-04T07:47:15.755Z,127.80
2018-09-04T07:49:44.058Z,109.80
2018-09-04T07:52:12.381Z,113.17
2018-09-04T07:54:40.721Z,111.00
2018-09-04T07:57:09.049Z,110.97
2018-09-04T08:01:06.943Z,105.60
2018-09-04T08:03:35.186Z,104.17
2018-09-04T08:06:03.485Z,113.47
2018-09-04T08:08:31.863Z,112.77
2018-09-04T08:11:00.192Z,109.60
2018-09-04T08:13:28.499Z,100.57
2018-09-04T08:15:56.811Z,97.53
2018-09-04T08:18:25.132Z,103.20
2018-09-04T08:20:53.501Z,91.27
2018-09-04T08:23:21.784Z,93.23
2018-09-04T08:25:50.087Z,86.07
2018-09-04T08:28:18.384Z,90.93
2018-09-04T08:30:46.694Z,92.47
2018-09-04T08:33:14.990Z,90.17
2018-09-04T08:35:43.339Z,92.87
2018-09-04T08:38:11.646Z,90.30
2018-09-04T08:40:39.946Z,90.83
2018-09-04T08:43:08.244Z,95.73
2018-09-04T08:45:36.560Z,94.97
2018-09-04T08:48:09.084Z,95.83
2018-09-04T08:50:37.436Z,92.83
2018-09-04T08:53:05.746Z,90.37
2018-09-04T08:55:34.059Z,90.47
2018-09-04T08:58:02.372Z,95.53
2018-09-04T09:00:30.723Z,93.23
2018-09-04T09:02:59.029Z,88.27
2018-09-04T09:05:27.400Z,97.80
2018-09-04T09:07:55.676Z,97.87
2018-09-04T09:10:24.040Z,102.37
2018-09-04T09:12:52.340Z,99.23
2018-09-04T09:15:20.645Z,101.87
2018-09-04T09:17:49.052Z,97.50
2018-09-04T09:20:17.367Z,106.93
2018-09-04T09:22:45.709Z,108.87
2018-09-04T09:25:14.006Z,94.50
2018-09-04T09:27:42.334Z,97.63
2018-09-04T09:30:10.916Z,99.63
2018-09-04T09:32:39.211Z,89.50
2018-09-04T09:35:07.607Z,96.17
2018-09-04T09:37:35.862Z,86.90
2018-09-04T09:40:04.204Z,94.20
2018-09-04T09:42:32.522Z,82.80
2018-09-04T09:45:00.836Z,79.60
2018-09-04T09:47:29.130Z,81.87
2018-09-04T09:49:57.459Z,86.40
2018-09-04T09:52:25.803Z,85.63
2018-09-04T09:54:54.104Z,79.20
2018-09-04T09:57:22.442Z,80.73
2018-09-04T09:59:50.822Z,76.87
2018-09-04T10:02:19.800Z,83.83
2018-09-04T10:04:48.239Z,84.93
2018-09-04T10:07:16.732Z,88.27
2018-09-04T10:09:45.072Z,84.07
2018-09-04T10:12:13.398Z,82.83
2018-09-04T10:14:41.707Z,73.97
2018-09-04T10:17:10.047Z,84.97
2018-09-04T10:19:38.355Z,71.57
2018-09-04T10:22:07.674Z,74.33
2018-09-04T10:24:36.103Z,66.30
2018-09-04T10:27:04.412Z,72.67
2018-09-04T10:29:32.717Z,66.47
2018-09-04T10:32:01.046Z,71.47
2018-09-04T10:34:29.347Z,69.07
2018-09-04T10:36:57.668Z,62.00
2018-09-04T10:39:31.324Z,61.33
2018-09-04T10:41:59.631Z,57.93
2018-09-04T10:44:32.377Z,56.10
2018-09-04T10:47:01.183Z,59.87
2018-09-04T10:49:29.491Z,62.13
2018-09-04T10:51:57.851Z,58.43
2018-09-04T10:54:26.168Z,56.60
2018-09-04T10:56:54.488Z,61.10
2018-09-04T10:59:22.784Z,57.97
2018-09-04T11:01:51.092Z,55.70
2018-09-04T11:04:19.402Z,58.17
2018-09-04T11:06:47.722Z,54.33
2018-09-04T11:09:16.144Z,56.20
2018-09-04T11:11:44.376Z,57.90
2018-09-04T11:14:12.686Z,63.57
2018-09-04T11:16:40.995Z,53.77
2018-09-04T11:19:09.303Z,56.93
2018-09-04T11:21:37.648Z,55.67
2018-09-04T11:24:06.611Z,56.27
2018-09-04T11:26:35.004Z,51.47
2018-09-04T11:29:05.689Z,51.67
2018-09-04T11:31:34.618Z,56.57
2018-09-04T11:34:02.944Z,51.23
2018-09-04T11:36:31.279Z,51.80
2018-09-04T11:38:59.597Z,49.40
2018-09-04T11:41:28.019Z,52.00
2018-09-04T11:43:56.316Z,49.90
2018-09-04T11:46:24.657Z,51.67
2018-09-04T11:48:52.972Z,52.73
2018-09-04T11:51:21.296Z,51.40
2018-09-04T11:53:49.638Z,49.70
2018-09-04T11:56:22.416Z,48.20
2018-09-04T11:58:50.725Z,53.57
2018-09-04T12:01:21.903Z,56.27
2018-09-04T12:03:50.472Z,53.83
2018-09-04T12:06:18.876Z,52.33
2018-09-04T12:08:47.358Z,50.93
2018-09-04T12:11:15.747Z,53.63
2018-09-04T12:13:44.176Z,51.67
2018-09-04T12:16:12.580Z,51.97
2018-09-04T12:18:40.991Z,54.13
2018-09-04T12:21:10.498Z,56.63
2018-09-04T12:23:39.056Z,54.00
2018-09-04T12:26:09.760Z,50.73
2018-09-04T12:28:38.116Z,54.07
2018-09-04T12:31:07.161Z,47.93
2018-09-04T12:33:35.476Z,53.17
2018-09-04T12:36:03.598Z,49.80
2018-09-04T12:38:34.040Z,53.13
2018-09-04T12:41:06.642Z,53.87
2018-09-04T12:43:37.019Z,46.37
2018-09-04T12:46:05.240Z,51.67
2018-09-04T12:48:33.382Z,47.97
2018-09-04T12:51:02.379Z,47.83
2018-09-04T12:53:31.370Z,49.23
2018-09-04T12:55:59.477Z,52.37
2018-09-04T12:58:27.622Z,50.97
2018-09-04T13:00:56.616Z,45.43
2018-09-04T13:03:26.715Z,45.60
2018-09-04T13:05:55.107Z,41.93
2018-09-04T13:08:25.059Z,44.20
2018-09-04T13:10:53.114Z,42.13
2018-09-04T13:13:21.203Z,38.37
2018-09-04T13:15:51.154Z,38.87
2018-09-04T13:18:20.376Z,40.00
2018-09-04T13:20:48.465Z,43.33
2018-09-04T13:23:16.513Z,40.63
2018-09-04T13:25:44.555Z,43.90
2018-09-04T13:28:12.595Z,45.20
2018-09-04T13:30:40.671Z,40.63
2018-09-04T13:33:08.858Z,38.73
2018-09-04T13:35:37.611Z,39.60
2018-09-04T13:38:06.091Z,36.97
2018-09-04T13:40:34.419Z,34.60
2018-09-04T13:43:02.763Z,38.10
2018-09-04T13:45:31.064Z,45.17
2018-09-04T13:48:00.848Z,40.70
2018-09-04T13:50:29.420Z,38.87
2018-09-04T13:52:57.905Z,38.33
2018-09-04T13:55:26.216Z,36.60
2018-09-04T13:57:54.538Z,39.57
2018-09-04T14:00:23.592Z,40.07
2018-09-04T14:02:51.915Z,36.88
2018-09-04T14:05:20.244Z,36.50
2018-09-04T14:07:48.539Z,40.57
2018-09-04T14:10:16.840Z,39.33
2018-09-04T14:12:45.159Z,38.33
2018-09-04T14:15:13.463Z,38.98
2018-09-04T14:17:41.807Z,37.30
2018-09-04T14:20:10.103Z,34.57
2018-09-04T14:22:38.470Z,38.43
2018-09-04T14:25:06.725Z,42.50
2018-09-04T14:27:35.038Z,35.37
2018-09-04T14:30:17.089Z,35.40
2018-09-04T14:32:31.703Z,42.77
2018-09-04T14:35:00.254Z,42.87
2018-09-04T14:37:28.568Z,31.20
2018-09-04T14:39:56.915Z,33.77
2018-09-04T14:42:25.231Z,33.23
2018-09-04T14:44:53.566Z,33.98
2018-09-04T14:47:21.919Z,30.03
2018-09-04T14:49:50.263Z,32.83
2018-09-04T14:52:18.620Z,30.93
2018-09-04T14:54:46.937Z,30.97
2018-09-04T14:57:15.331Z,31.87
2018-09-04T14:59:43.990Z,30.63
2018-09-04T15:02:12.340Z,31.67
2018-09-04T15:04:41.816Z,31.97
2018-09-04T15:07:10.217Z,26.97
2018-09-04T15:09:38.592Z,27.33
2018-09-04T15:12:07.008Z,29.20
2018-09-04T15:14:35.443Z,28.80
2018-09-04T15:17:03.925Z,28.80
2018-09-04T15:19:32.299Z,29.87
2018-09-04T15:22:00.947Z,35.23
2018-09-04T15:24:29.325Z,26.27
2018-09-04T15:26:57.929Z,27.10
2018-09-04T15:29:26.288Z,28.10
2018-09-04T15:31:54.607Z,29.27
2018-09-04T15:34:22.912Z,26.40
2018-09-04T15:36:51.264Z,27.37
2018-09-04T15:39:19.551Z,25.83
2018-09-04T15:41:47.840Z,26.17
2018-09-04T15:44:16.150Z,26.30
2018-09-04T15:46:44.489Z,30.33
2018-09-04T15:49:18.284Z,28.80
2018-09-04T15:51:46.593Z,24.53
2018-09-04T15:54:14.882Z,27.20
2018-09-04T15:56:43.277Z,26.93
2018-09-04T15:59:11.606Z,29.60
2018-09-04T16:01:39.934Z,23.67
2018-09-04T16:04:08.368Z,24.73
2018-09-04T16:06:36.672Z,25.87
2018-09-04T16:09:05.773Z,22.40
2018-09-04T16:11:34.115Z,24.13
2018-09-04T16:14:02.480Z,21.87
2018-09-04T16:16:30.884Z,26.50
2018-09-04T16:18:59.196Z,27.13
2018-09-04T16:21:27.517Z,29.10
2018-09-04T16:23:55.842Z,26.83
2018-09-04T16:26:24.160Z,26.00
2018-09-04T16:28:52.499Z,28.40
2018-09-04T16:31:20.815Z,26.80
2018-09-04T16:33:49.144Z,26.57
2018-09-04T16:36:17.479Z,28.30
2018-09-04T16:38:45.783Z,28.07
2018-09-04T16:41:14.077Z,27.70
2018-09-04T16:43:42.396Z,27.00
2018-09-04T16:46:10.703Z,24.17
2018-09-04T16:48:39.006Z,26.67
2018-09-04T16:51:07.376Z,29.30
2018-09-04T16:53:35.671Z,24.40
2018-09-04T16:56:03.975Z,30.67
2018-09-04T16:58:33.030Z,25.37
2018-09-04T17:01:01.622Z,27.50
2018-09-04T17:03:30.319Z,30.43
2018-09-04T17:05:58.624Z,27.83
2018-09-04T17:08:26.916Z,26.10
2018-09-04T17:10:55.388Z,24.23
2018-09-04T17:13:23.697Z,25.13
2018-09-04T17:15:52.008Z,26.47
2018-09-04T17:18:20.323Z,27.93
2018-09-04T17:20:48.623Z,26.20
2018-09-04T17:23:16.984Z,26.73
2018-09-04T17:25:45.419Z,28.83
2018-09-04T17:28:13.733Z,25.90
2018-09-04T17:30:42.046Z,24.17
2018-09-04T17:33:10.374Z,27.33
2018-09-04T17:35:38.692Z,27.20
2018-09-04T17:38:07.103Z,27.73
2018-09-04T17:40:35.459Z,26.00
2018-09-04T17:43:03.800Z,24.17
2018-09-04T17:45:32.164Z,24.97
2018-09-04T17:48:00.501Z,24.00
2018-09-04T17:50:28.825Z,24.20
2018-09-04T17:52:57.183Z,25.60
2018-09-04T17:55:25.556Z,27.37
2018-09-04T17:57:53.872Z,25.80
2018-09-04T18:00:22.249Z,22.13
2018-09-04T18:02:51.100Z,26.50
2018-09-04T18:05:19.509Z,28.97
2018-09-04T18:07:48.532Z,25.90
2018-09-04T18:10:16.745Z,26.00
2018-09-04T18:12:45.420Z,25.07
2018-09-04T18:15:13.703Z,25.43
2018-09-04T18:17:41.841Z,31.47
2018-09-04T18:20:09.996Z,26.57
2018-09-04T18:22:38.183Z,27.50
2018-09-04T18:25:06.231Z,27.80
2018-09-04T18:27:34.296Z,35.30
2018-09-04T18:30:02.376Z,25.60
2018-09-04T18:32:30.569Z,28.90
2018-09-04T18:34:58.688Z,28.67
2018-09-04T18:37:26.774Z,27.60
2018-09-04T18:39:55.396Z,26.47
2018-09-04T18:42:23.476Z,30.47
2018-09-04T18:44:52.000Z,28.33
2018-09-04T18:47:20.919Z,29.57
2018-09-04T18:49:49.060Z,29.93
2018-09-04T18:52:17.181Z,33.23
2018-09-04T18:54:45.241Z,32.87
2018-09-04T18:57:13.321Z,32.83
2018-09-04T18:59:41.504Z,32.40
2018-09-04T19:02:09.580Z,32.07
2018-09-04T19:04:37.919Z,33.37
2018-09-04T19:07:06.111Z,33.40
2018-09-04T19:09:34.205Z,34.63
2018-09-04T19:12:02.394Z,35.60
2018-09-04T19:14:30.731Z,40.77
2018-09-04T19:16:59.084Z,38.23
2018-09-04T19:19:28.056Z,38.10
2018-09-04T19:21:56.436Z,37.53
2018-09-04T19:24:25.220Z,35.50
2018-09-04T19:26:53.535Z,38.70
2018-09-04T19:29:21.876Z,35.30
2018-09-04T19:31:50.227Z,38.53
2018-09-04T19:34:18.563Z,33.70
2018-09-04T19:36:47.064Z,39.73
2018-09-04T19:39:15.382Z,37.07
2018-09-04T19:41:43.816Z,39.47
2018-09-04T19:44:12.279Z,38.13
2018-09-04T19:46:40.631Z,39.20
2018-09-04T19:49:08.973Z,37.83
2018-09-04T19:51:37.285Z,39.73
2018-09-04T19:54:05.815Z,40.93
2018-09-04T19:56:34.141Z,48.13
2018-09-04T19:59:02.468Z,43.87
2018-09-04T20:01:30.865Z,45.87
2018-09-04T20:03:59.186Z,46.53
2018-09-04T20:06:27.511Z,47.10
2018-09-04T20:08:55.848Z,48.40
2018-09-04T20:11:24.218Z,46.33
2018-09-04T20:13:53.073Z,52.03
2018-09-04T20:16:21.631Z,47.67
2018-09-04T20:18:50.144Z,50.20
2018-09-04T20:21:18.448Z,53.60
2018-09-04T20:23:46.789Z,44.43
2018-09-04T20:26:15.112Z,45.73
2018-09-04T20:28:43.430Z,45.53
2018-09-04T20:31:11.727Z,47.20
2018-09-04T20:33:40.275Z,46.93
2018-09-04T20:36:08.615Z,46.40
2018-09-04T20:38:37.075Z,50.33
2018-09-04T20:41:05.466Z,53.13
2018-09-04T20:43:33.830Z,52.27
2018-09-04T20:46:02.159Z,54.47
2018-09-04T20:48:30.479Z,52.03
2018-09-04T20:50:58.856Z,55.93
2018-09-04T20:53:27.192Z,52.30
2018-09-04T20:55:55.512Z,59.50
2018-09-04T20:58:35.392Z,57.23
2018-09-04T21:01:15.150Z,48.20
2018-09-04T21:03:55.068Z,54.93
2018-09-04T21:06:34.782Z,49.93
2018-09-04T21:09:12.839Z,55.47
2018-09-04T21:11:41.280Z,51.17
2018-09-04T21:14:09.583Z,57.50
2018-09-04T21:16:37.879Z,53.13
2018-09-04T21:19:06.220Z,55.40
2018-09-04T21:21:34.567Z,45.97
2018-09-04T21:24:02.890Z,49.10
2018-09-04T21:26:31.237Z,47.53
2018-09-04T21:28:59.582Z,46.80
2018-09-04T21:31:27.987Z,40.87
2018-09-04T21:33:56.315Z,41.80
2018-09-04T21:36:24.622Z,45.00
2018-09-04T21:38:52.943Z,45.77
2018-09-04T21:41:21.263Z,44.93
2018-09-04T21:43:49.565Z,40.77
2018-09-04T21:46:17.885Z,40.83
2018-09-04T21:48:46.192Z,47.90
2018-09-04T21:51:14.515Z,41.17
2018-09-04T21:53:42.832Z,46.87
2018-09-04T21:56:11.160Z,42.47
2018-09-04T21:58:39.470Z,42.90
2018-09-04T22:01:07.847Z,47.27
2018-09-04T22:03:36.143Z,49.37
2018-09-04T22:06:04.441Z,52.00
2018-09-04T22:08:32.759Z,52.73
2018-09-04T22:11:01.095Z,50.47
2018-09-04T22:13:29.399Z,58.43
2018-09-04T22:15:57.799Z,59.00
2018-09-04T22:18:26.098Z,56.70
2018-09-04T22:20:54.404Z,57.97
2018-09-04T22:23:23.143Z,58.20
2018-09-04T22:25:51.473Z,60.57
2018-09-04T22:28:19.804Z,53.70
2018-09-04T22:30:48.132Z,54.80
2018-09-04T22:33:16.426Z,54.10
2018-09-04T22:35:44.767Z,55.17
2018-09-04T22:38:13.068Z,53.73
2018-09-04T22:40:41.457Z,51.13
2018-09-04T22:43:09.781Z,54.13
2018-09-04T22:45:38.096Z,56.53
2018-09-04T22:48:06.436Z,54.23
2018-09-04T22:50:40.214Z,57.53
2018-09-04T22:53:08.519Z,54.77
2018-09-04T22:55:36.836Z,54.03
2018-09-04T22:58:05.351Z,52.43
2018-09-04T23:00:33.652Z,59.37
2018-09-04T23:03:01.972Z,54.87
2018-09-04T23:05:30.276Z,53.67
2018-09-04T23:07:58.599Z,54.40
2018-09-04T23:10:26.911Z,59.17
2018-09-04T23:12:55.309Z,52.60
2018-09-04T23:15:23.623Z,54.27
2018-09-04T23:17:51.923Z,57.10
2018-09-04T23:20:20.251Z,47.90
2018-09-04T23:22:48.559Z,57.10
2018-09-04T23:25:16.999Z,51.60
2018-09-04T23:27:45.327Z,58.70
2018-09-04T23:30:13.652Z,54.43
2018-09-04T23:32:42.508Z,54.60
2018-09-04T23:35:10.823Z,51.33
2018-09-04T23:37:39.140Z,57.03
2018-09-04T23:40:07.441Z,56.43
2018-09-04T23:42:35.750Z,61.60
2018-09-04T23:45:04.751Z,59.20
2018-09-04T23:47:33.187Z,52.43
2018-09-04T23:50:01.492Z,68.07
2018-09-04T23:52:29.798Z,53.47
2018-09-04T23:54:58.096Z,62.80
2018-09-04T23:57:26.403Z,54.27
2018-09-04T23:59:54.723Z,51.07
